sensor_id;sensor_type;location;lat;lon;timestamp;temperature;humidity
69328;DHT22;56472;52.114;5.492;2023-03-04T00:00:29;9.20;65.90
69328;DHT22;56472;52.114;5.492;2023-03-04T00:02:56;9.20;65.90
69328;DHT22;56472;52.114;5.492;2023-03-04T00:05:23;9.20;65.90
69328;DHT22;56472;52.114;5.492;2023-03-04T00:07:50;9.20;65.90
69328;DHT22;56472;52.114;5.492;2023-03-04T00:10:17;9.20;66.00
69328;DHT22;56472;52.114;5.492;2023-03-04T00:12:43;9.20;66.20
69328;DHT22;56472;52.114;5.492;2023-03-04T00:15:10;9.20;66.30
69328;DHT22;56472;52.114;5.492;2023-03-04T00:17:37;9.20;66.30
69328;DHT22;56472;52.114;5.492;2023-03-04T00:20:05;9.20;66.30
69328;DHT22;56472;52.114;5.492;2023-03-04T00:22:32;9.10;66.30
69328;DHT22;56472;52.114;5.492;2023-03-04T00:24:59;9.10;66.40
69328;DHT22;56472;52.114;5.492;2023-03-04T00:27:26;9.10;66.50
69328;DHT22;56472;52.114;5.492;2023-03-04T00:29:53;9.10;66.60
69328;DHT22;56472;52.114;5.492;2023-03-04T00:32:20;9.10;66.60
69328;DHT22;56472;52.114;5.492;2023-03-04T00:34:47;9.10;66.50
69328;DHT22;56472;52.114;5.492;2023-03-04T00:37:14;9.10;66.50
69328;DHT22;56472;52.114;5.492;2023-03-04T00:39:42;9.10;66.50
69328;DHT22;56472;52.114;5.492;2023-03-04T00:42:09;9.10;66.70
69328;DHT22;56472;52.114;5.492;2023-03-04T00:44:37;9.10;66.70
69328;DHT22;56472;52.114;5.492;2023-03-04T00:47:04;9.10;66.70
69328;DHT22;56472;52.114;5.492;2023-03-04T00:49:31;9.10;66.60
69328;DHT22;56472;52.114;5.492;2023-03-04T00:51:58;9.10;66.60
69328;DHT22;56472;52.114;5.492;2023-03-04T00:54:25;9.10;66.70
69328;DHT22;56472;52.114;5.492;2023-03-04T00:56:52;9.10;66.80
69328;DHT22;56472;52.114;5.492;2023-03-04T00:59:19;9.10;66.90
69328;DHT22;56472;52.114;5.492;2023-03-04T01:01:46;9.10;66.90
69328;DHT22;56472;52.114;5.492;2023-03-04T01:04:13;9.10;67.00
69328;DHT22;56472;52.114;5.492;2023-03-04T01:06:40;9.10;66.90
69328;DHT22;56472;52.114;5.492;2023-03-04T01:09:07;9.10;67.00
69328;DHT22;56472;52.114;5.492;2023-03-04T01:11:34;9.10;67.00
69328;DHT22;56472;52.114;5.492;2023-03-04T01:14:02;9.10;67.10
69328;DHT22;56472;52.114;5.492;2023-03-04T01:16:29;9.00;67.10
69328;DHT22;56472;52.114;5.492;2023-03-04T01:18:56;9.00;67.20
69328;DHT22;56472;52.114;5.492;2023-03-04T01:21:23;9.00;67.30
69328;DHT22;56472;52.114;5.492;2023-03-04T01:23:49;9.00;67.20
69328;DHT22;56472;52.114;5.492;2023-03-04T01:26:16;9.00;67.10
69328;DHT22;56472;52.114;5.492;2023-03-04T01:28:43;9.00;66.90
69328;DHT22;56472;52.114;5.492;2023-03-04T01:31:10;9.00;66.90
69328;DHT22;56472;52.114;5.492;2023-03-04T01:33:37;9.00;66.90
69328;DHT22;56472;52.114;5.492;2023-03-04T01:36:04;9.00;66.70
69328;DHT22;56472;52.114;5.492;2023-03-04T01:38:31;9.00;66.60
69328;DHT22;56472;52.114;5.492;2023-03-04T01:40:58;9.00;66.70
69328;DHT22;56472;52.114;5.492;2023-03-04T01:43:27;9.00;66.80
69328;DHT22;56472;52.114;5.492;2023-03-04T01:45:56;9.00;66.60
69328;DHT22;56472;52.114;5.492;2023-03-04T01:48:27;9.00;66.50
69328;DHT22;56472;52.114;5.492;2023-03-04T01:50:54;9.00;66.60
69328;DHT22;56472;52.114;5.492;2023-03-04T01:53:23;9.00;66.60
69328;DHT22;56472;52.114;5.492;2023-03-04T01:55:56;9.00;66.60
69328;DHT22;56472;52.114;5.492;2023-03-04T01:58:27;9.00;66.70
69328;DHT22;56472;52.114;5.492;2023-03-04T02:00:55;9.00;66.70
69328;DHT22;56472;52.114;5.492;2023-03-04T02:03:22;9.00;66.60
69328;DHT22;56472;52.114;5.492;2023-03-04T02:05:51;9.00;66.80
69328;DHT22;56472;52.114;5.492;2023-03-04T02:08:21;9.00;66.90
69328;DHT22;56472;52.114;5.492;2023-03-04T02:10:50;8.90;66.90
69328;DHT22;56472;52.114;5.492;2023-03-04T02:13:17;8.90;66.90
69328;DHT22;56472;52.114;5.492;2023-03-04T02:15:45;8.90;67.00
69328;DHT22;56472;52.114;5.492;2023-03-04T02:18:20;9.00;67.10
69328;DHT22;56472;52.114;5.492;2023-03-04T02:26:21;8.90;66.90
69328;DHT22;56472;52.114;5.492;2023-03-04T02:28:52;8.90;67.00
69328;DHT22;56472;52.114;5.492;2023-03-04T02:31:27;8.90;66.80
69328;DHT22;56472;52.114;5.492;2023-03-04T02:33:58;8.90;66.80
69328;DHT22;56472;52.114;5.492;2023-03-04T02:36:27;8.90;66.80
69328;DHT22;56472;52.114;5.492;2023-03-04T02:38:58;8.90;66.50
69328;DHT22;56472;52.114;5.492;2023-03-04T02:41:29;8.90;67.30
69328;DHT22;56472;52.114;5.492;2023-03-04T02:43:57;8.90;66.10
69328;DHT22;56472;52.114;5.492;2023-03-04T02:46:25;8.80;65.80
69328;DHT22;56472;52.114;5.492;2023-03-04T02:48:53;8.80;65.80
69328;DHT22;56472;52.114;5.492;2023-03-04T02:51:20;8.80;65.80
69328;DHT22;56472;52.114;5.492;2023-03-04T02:53:47;8.80;65.70
69328;DHT22;56472;52.114;5.492;2023-03-04T02:56:14;8.80;65.70
69328;DHT22;56472;52.114;5.492;2023-03-04T02:58:41;8.80;65.60
69328;DHT22;56472;52.114;5.492;2023-03-04T03:01:10;8.80;65.60
69328;DHT22;56472;52.114;5.492;2023-03-04T03:03:37;8.80;65.70
69328;DHT22;56472;52.114;5.492;2023-03-04T03:06:04;8.70;65.60
69328;DHT22;56472;52.114;5.492;2023-03-04T03:08:31;8.70;65.40
69328;DHT22;56472;52.114;5.492;2023-03-04T03:11:00;8.70;64.90
69328;DHT22;56472;52.114;5.492;2023-03-04T03:13:29;8.70;65.10
69328;DHT22;56472;52.114;5.492;2023-03-04T03:15:55;8.70;65.20
69328;DHT22;56472;52.114;5.492;2023-03-04T03:18:23;8.70;65.30
69328;DHT22;56472;52.114;5.492;2023-03-04T03:20:50;8.70;65.30
69328;DHT22;56472;52.114;5.492;2023-03-04T03:23:17;8.70;65.40
69328;DHT22;56472;52.114;5.492;2023-03-04T03:25:44;8.80;65.60
69328;DHT22;56472;52.114;5.492;2023-03-04T03:28:11;8.80;65.40
69328;DHT22;56472;52.114;5.492;2023-03-04T03:30:38;8.80;65.40
69328;DHT22;56472;52.114;5.492;2023-03-04T03:33:05;8.80;65.40
69328;DHT22;56472;52.114;5.492;2023-03-04T03:35:32;8.80;65.40
69328;DHT22;56472;52.114;5.492;2023-03-04T03:37:59;8.80;65.20
69328;DHT22;56472;52.114;5.492;2023-03-04T03:40:26;8.80;65.40
69328;DHT22;56472;52.114;5.492;2023-03-04T03:42:53;8.80;65.40
69328;DHT22;56472;52.114;5.492;2023-03-04T03:45:20;8.80;66.20
69328;DHT22;56472;52.114;5.492;2023-03-04T03:47:47;8.80;65.50
69328;DHT22;56472;52.114;5.492;2023-03-04T03:50:14;8.80;65.60
69328;DHT22;56472;52.114;5.492;2023-03-04T03:52:41;8.80;65.70
69328;DHT22;56472;52.114;5.492;2023-03-04T03:55:08;8.80;65.60
69328;DHT22;56472;52.114;5.492;2023-03-04T03:57:35;8.80;65.90
69328;DHT22;56472;52.114;5.492;2023-03-04T04:00:03;8.80;66.00
69328;DHT22;56472;52.114;5.492;2023-03-04T04:02:38;8.80;66.10
69328;DHT22;56472;52.114;5.492;2023-03-04T04:05:06;8.80;66.20
69328;DHT22;56472;52.114;5.492;2023-03-04T04:07:33;8.80;66.40
69328;DHT22;56472;52.114;5.492;2023-03-04T04:10:00;8.80;66.60
69328;DHT22;56472;52.114;5.492;2023-03-04T04:12:27;8.80;66.80
69328;DHT22;56472;52.114;5.492;2023-03-04T04:14:54;8.80;67.00
69328;DHT22;56472;52.114;5.492;2023-03-04T04:17:20;8.80;67.10
69328;DHT22;56472;52.114;5.492;2023-03-04T04:19:47;8.80;67.10
69328;DHT22;56472;52.114;5.492;2023-03-04T04:22:17;8.80;67.30
69328;DHT22;56472;52.114;5.492;2023-03-04T04:24:44;8.80;67.40
69328;DHT22;56472;52.114;5.492;2023-03-04T04:27:11;8.80;67.50
69328;DHT22;56472;52.114;5.492;2023-03-04T04:29:39;8.80;67.60
69328;DHT22;56472;52.114;5.492;2023-03-04T04:32:06;8.80;67.80
69328;DHT22;56472;52.114;5.492;2023-03-04T04:34:34;8.80;67.90
69328;DHT22;56472;52.114;5.492;2023-03-04T04:37:01;8.80;67.80
69328;DHT22;56472;52.114;5.492;2023-03-04T04:39:28;8.80;67.80
69328;DHT22;56472;52.114;5.492;2023-03-04T04:41:55;8.70;67.70
69328;DHT22;56472;52.114;5.492;2023-03-04T04:44:22;8.80;68.10
69328;DHT22;56472;52.114;5.492;2023-03-04T04:46:49;8.80;67.80
69328;DHT22;56472;52.114;5.492;2023-03-04T04:49:15;8.70;67.80
69328;DHT22;56472;52.114;5.492;2023-03-04T04:51:42;8.70;68.00
69328;DHT22;56472;52.114;5.492;2023-03-04T04:54:10;8.70;68.10
69328;DHT22;56472;52.114;5.492;2023-03-04T04:56:38;8.70;68.20
69328;DHT22;56472;52.114;5.492;2023-03-04T04:59:06;8.70;68.20
69328;DHT22;56472;52.114;5.492;2023-03-04T05:01:34;8.70;68.30
69328;DHT22;56472;52.114;5.492;2023-03-04T05:04:01;8.60;68.40
69328;DHT22;56472;52.114;5.492;2023-03-04T05:06:28;8.70;68.50
69328;DHT22;56472;52.114;5.492;2023-03-04T05:08:55;8.70;68.40
69328;DHT22;56472;52.114;5.492;2023-03-04T05:11:22;8.60;68.40
69328;DHT22;56472;52.114;5.492;2023-03-04T05:13:49;8.60;68.40
69328;DHT22;56472;52.114;5.492;2023-03-04T05:16:17;8.60;68.30
69328;DHT22;56472;52.114;5.492;2023-03-04T05:18:44;8.60;68.20
69328;DHT22;56472;52.114;5.492;2023-03-04T05:21:11;8.60;68.30
69328;DHT22;56472;52.114;5.492;2023-03-04T05:23:40;8.60;68.20
69328;DHT22;56472;52.114;5.492;2023-03-04T05:26:08;8.60;68.20
69328;DHT22;56472;52.114;5.492;2023-03-04T05:28:35;8.70;68.20
69328;DHT22;56472;52.114;5.492;2023-03-04T05:31:02;8.60;68.10
69328;DHT22;56472;52.114;5.492;2023-03-04T05:33:29;8.60;68.10
69328;DHT22;56472;52.114;5.492;2023-03-04T05:35:57;8.70;68.20
69328;DHT22;56472;52.114;5.492;2023-03-04T05:38:24;8.60;68.20
69328;DHT22;56472;52.114;5.492;2023-03-04T05:41:00;8.60;68.30
69328;DHT22;56472;52.114;5.492;2023-03-04T05:43:28;8.60;68.40
69328;DHT22;56472;52.114;5.492;2023-03-04T05:45:55;8.60;68.50
69328;DHT22;56472;52.114;5.492;2023-03-04T05:48:22;8.60;68.60
69328;DHT22;56472;52.114;5.492;2023-03-04T05:50:54;8.60;68.80
69328;DHT22;56472;52.114;5.492;2023-03-04T05:53:21;8.60;68.80
69328;DHT22;56472;52.114;5.492;2023-03-04T05:55:48;8.50;69.00
69328;DHT22;56472;52.114;5.492;2023-03-04T05:58:16;8.50;69.20
69328;DHT22;56472;52.114;5.492;2023-03-04T06:00:43;8.50;69.50
69328;DHT22;56472;52.114;5.492;2023-03-04T06:03:15;8.50;69.70
69328;DHT22;56472;52.114;5.492;2023-03-04T06:05:42;8.50;69.90
69328;DHT22;56472;52.114;5.492;2023-03-04T06:08:11;8.50;70.20
69328;DHT22;56472;52.114;5.492;2023-03-04T06:10:39;8.40;70.40
69328;DHT22;56472;52.114;5.492;2023-03-04T06:13:07;8.40;70.70
69328;DHT22;56472;52.114;5.492;2023-03-04T06:15:34;8.40;70.90
69328;DHT22;56472;52.114;5.492;2023-03-04T06:18:01;8.40;71.00
69328;DHT22;56472;52.114;5.492;2023-03-04T06:20:28;8.40;71.10
69328;DHT22;56472;52.114;5.492;2023-03-04T06:22:55;8.40;71.40
69328;DHT22;56472;52.114;5.492;2023-03-04T06:25:22;8.40;71.40
69328;DHT22;56472;52.114;5.492;2023-03-04T06:27:49;8.40;71.60
69328;DHT22;56472;52.114;5.492;2023-03-04T06:30:17;8.40;71.70
69328;DHT22;56472;52.114;5.492;2023-03-04T06:32:44;8.40;72.00
69328;DHT22;56472;52.114;5.492;2023-03-04T06:35:14;8.40;71.90
69328;DHT22;56472;52.114;5.492;2023-03-04T06:37:42;8.30;72.10
69328;DHT22;56472;52.114;5.492;2023-03-04T06:40:09;8.40;72.20
69328;DHT22;56472;52.114;5.492;2023-03-04T06:42:37;8.40;72.30
69328;DHT22;56472;52.114;5.492;2023-03-04T06:45:04;8.40;72.40
69328;DHT22;56472;52.114;5.492;2023-03-04T06:47:31;8.40;72.40
69328;DHT22;56472;52.114;5.492;2023-03-04T06:49:58;8.40;72.60
69328;DHT22;56472;52.114;5.492;2023-03-04T06:52:25;8.40;72.60
69328;DHT22;56472;52.114;5.492;2023-03-04T06:54:52;8.40;72.60
69328;DHT22;56472;52.114;5.492;2023-03-04T06:57:19;8.40;72.70
69328;DHT22;56472;52.114;5.492;2023-03-04T06:59:46;8.40;72.90
69328;DHT22;56472;52.114;5.492;2023-03-04T07:02:13;8.50;73.00
69328;DHT22;56472;52.114;5.492;2023-03-04T07:04:40;8.50;73.10
69328;DHT22;56472;52.114;5.492;2023-03-04T07:07:07;8.50;73.10
69328;DHT22;56472;52.114;5.492;2023-03-04T07:09:34;8.50;73.10
69328;DHT22;56472;52.114;5.492;2023-03-04T07:12:02;8.50;73.10
69328;DHT22;56472;52.114;5.492;2023-03-04T07:14:29;8.60;73.20
69328;DHT22;56472;52.114;5.492;2023-03-04T07:16:56;8.60;73.20
69328;DHT22;56472;52.114;5.492;2023-03-04T07:19:24;8.60;73.10
69328;DHT22;56472;52.114;5.492;2023-03-04T07:21:50;8.60;73.20
69328;DHT22;56472;52.114;5.492;2023-03-04T07:24:17;8.60;73.10
69328;DHT22;56472;52.114;5.492;2023-03-04T07:26:44;8.60;73.50
69328;DHT22;56472;52.114;5.492;2023-03-04T07:29:12;8.60;73.60
69328;DHT22;56472;52.114;5.492;2023-03-04T07:31:39;8.60;73.80
69328;DHT22;56472;52.114;5.492;2023-03-04T07:34:08;8.60;74.20
69328;DHT22;56472;52.114;5.492;2023-03-04T07:36:36;8.60;74.50
69328;DHT22;56472;52.114;5.492;2023-03-04T07:39:04;8.50;74.40
69328;DHT22;56472;52.114;5.492;2023-03-04T07:41:31;8.60;74.60
69328;DHT22;56472;52.114;5.492;2023-03-04T07:44:02;8.60;74.70
69328;DHT22;56472;52.114;5.492;2023-03-04T07:46:29;8.60;74.90
69328;DHT22;56472;52.114;5.492;2023-03-04T07:48:56;8.70;75.00
69328;DHT22;56472;52.114;5.492;2023-03-04T07:51:25;8.70;75.00
69328;DHT22;56472;52.114;5.492;2023-03-04T07:53:55;8.70;75.10
69328;DHT22;56472;52.114;5.492;2023-03-04T07:56:27;8.80;75.40
69328;DHT22;56472;52.114;5.492;2023-03-04T07:58:55;8.80;75.40
69328;DHT22;56472;52.114;5.492;2023-03-04T08:01:24;8.80;75.50
69328;DHT22;56472;52.114;5.492;2023-03-04T08:03:52;8.80;76.00
69328;DHT22;56472;52.114;5.492;2023-03-04T08:06:20;8.80;75.90
69328;DHT22;56472;52.114;5.492;2023-03-04T08:08:48;8.70;75.80
69328;DHT22;56472;52.114;5.492;2023-03-04T08:11:19;8.80;76.10
69328;DHT22;56472;52.114;5.492;2023-03-04T08:13:47;8.80;76.30
69328;DHT22;56472;52.114;5.492;2023-03-04T08:16:16;8.70;76.10
69328;DHT22;56472;52.114;5.492;2023-03-04T08:18:44;8.80;76.40
69328;DHT22;56472;52.114;5.492;2023-03-04T08:21:14;8.80;76.30
69328;DHT22;56472;52.114;5.492;2023-03-04T08:23:42;8.70;76.40
69328;DHT22;56472;52.114;5.492;2023-03-04T08:26:12;8.80;76.60
69328;DHT22;56472;52.114;5.492;2023-03-04T08:28:40;8.80;76.60
69328;DHT22;56472;52.114;5.492;2023-03-04T08:31:07;8.80;76.90
69328;DHT22;56472;52.114;5.492;2023-03-04T08:33:34;8.90;76.40
69328;DHT22;56472;52.114;5.492;2023-03-04T08:36:01;8.90;76.80
69328;DHT22;56472;52.114;5.492;2023-03-04T08:38:28;8.90;77.00
69328;DHT22;56472;52.114;5.492;2023-03-04T08:40:55;8.90;77.20
69328;DHT22;56472;52.114;5.492;2023-03-04T08:43:24;8.90;77.80
69328;DHT22;56472;52.114;5.492;2023-03-04T08:45:52;9.00;78.00
69328;DHT22;56472;52.114;5.492;2023-03-04T08:48:20;9.00;78.10
69328;DHT22;56472;52.114;5.492;2023-03-04T08:50:49;9.10;78.10
69328;DHT22;56472;52.114;5.492;2023-03-04T08:53:17;9.10;78.00
69328;DHT22;56472;52.114;5.492;2023-03-04T08:55:44;9.10;78.10
69328;DHT22;56472;52.114;5.492;2023-03-04T08:58:12;9.20;78.10
69328;DHT22;56472;52.114;5.492;2023-03-04T09:00:42;9.10;78.20
69328;DHT22;56472;52.114;5.492;2023-03-04T09:03:11;9.20;78.90
69328;DHT22;56472;52.114;5.492;2023-03-04T09:05:38;9.20;78.80
69328;DHT22;56472;52.114;5.492;2023-03-04T09:08:06;9.20;78.80
69328;DHT22;56472;52.114;5.492;2023-03-04T09:10:33;9.20;79.10
69328;DHT22;56472;52.114;5.492;2023-03-04T09:13:00;9.20;79.30
69328;DHT22;56472;52.114;5.492;2023-03-04T09:15:27;9.20;79.70
69328;DHT22;56472;52.114;5.492;2023-03-04T09:17:54;9.20;79.50
69328;DHT22;56472;52.114;5.492;2023-03-04T09:20:21;9.20;79.50
69328;DHT22;56472;52.114;5.492;2023-03-04T09:22:49;9.30;79.60
69328;DHT22;56472;52.114;5.492;2023-03-04T09:25:16;9.30;79.70
69328;DHT22;56472;52.114;5.492;2023-03-04T09:27:43;9.40;80.00
69328;DHT22;56472;52.114;5.492;2023-03-04T09:30:10;9.40;79.50
69328;DHT22;56472;52.114;5.492;2023-03-04T09:32:38;9.50;79.50
69328;DHT22;56472;52.114;5.492;2023-03-04T09:35:07;9.50;79.60
69328;DHT22;56472;52.114;5.492;2023-03-04T09:37:36;9.50;79.20
69328;DHT22;56472;52.114;5.492;2023-03-04T09:40:07;9.60;78.80
69328;DHT22;56472;52.114;5.492;2023-03-04T09:42:39;9.60;78.30
69328;DHT22;56472;52.114;5.492;2023-03-04T09:45:07;9.70;78.30
69328;DHT22;56472;52.114;5.492;2023-03-04T09:47:34;9.70;78.60
69328;DHT22;56472;52.114;5.492;2023-03-04T09:50:09;9.80;78.50
69328;DHT22;56472;52.114;5.492;2023-03-04T09:52:51;9.80;78.50
69328;DHT22;56472;52.114;5.492;2023-03-04T10:00:30;9.90;78.10
69328;DHT22;56472;52.114;5.492;2023-03-04T10:22:36;10.30;76.80
69328;DHT22;56472;52.114;5.492;2023-03-04T10:25:18;10.40;77.20
69328;DHT22;56472;52.114;5.492;2023-03-04T10:33:19;10.30;75.90
69328;DHT22;56472;52.114;5.492;2023-03-04T10:36:03;10.30;76.00
69328;DHT22;56472;52.114;5.492;2023-03-04T10:38:36;10.30;76.30
69328;DHT22;56472;52.114;5.492;2023-03-04T10:41:15;10.40;76.80
69328;DHT22;56472;52.114;5.492;2023-03-04T10:43:43;10.40;77.20
69328;DHT22;56472;52.114;5.492;2023-03-04T10:46:15;10.60;77.30
69328;DHT22;56472;52.114;5.492;2023-03-04T10:48:42;10.70;77.00
69328;DHT22;56472;52.114;5.492;2023-03-04T10:53:42;10.90;76.80
69328;DHT22;56472;52.114;5.492;2023-03-04T10:59:40;11.00;76.90
69328;DHT22;56472;52.114;5.492;2023-03-04T11:02:29;11.00;77.10
69328;DHT22;56472;52.114;5.492;2023-03-04T11:07:54;11.10;78.70
69328;DHT22;56472;52.114;5.492;2023-03-04T11:13:12;11.40;78.00
69328;DHT22;56472;52.114;5.492;2023-03-04T11:15:58;11.40;77.50
69328;DHT22;56472;52.114;5.492;2023-03-04T11:18:43;11.50;76.00
69328;DHT22;56472;52.114;5.492;2023-03-04T11:21:18;11.50;74.70
69328;DHT22;56472;52.114;5.492;2023-03-04T11:24:02;11.40;74.80
69328;DHT22;56472;52.114;5.492;2023-03-04T11:26:35;11.40;75.10
69328;DHT22;56472;52.114;5.492;2023-03-04T11:32:06;11.30;75.40
69328;DHT22;56472;52.114;5.492;2023-03-04T11:45:16;11.00;76.70
69328;DHT22;56472;52.114;5.492;2023-03-04T11:48:30;10.90;76.90
69328;DHT22;56472;52.114;5.492;2023-03-04T11:51:00;10.90;76.90
69328;DHT22;56472;52.114;5.492;2023-03-04T12:07:03;11.50;77.00
69328;DHT22;56472;52.114;5.492;2023-03-04T12:20:49;11.80;71.40
69328;DHT22;56472;52.114;5.492;2023-03-04T12:32:23;11.70;69.30
69328;DHT22;56472;52.114;5.492;2023-03-04T12:48:34;11.80;69.10
69328;DHT22;56472;52.114;5.492;2023-03-04T12:56:40;12.40;69.20
69328;DHT22;56472;52.114;5.492;2023-03-04T12:59:17;12.70;68.30
69328;DHT22;56472;52.114;5.492;2023-03-04T13:02:08;12.90;66.30
69328;DHT22;56472;52.114;5.492;2023-03-04T13:05:02;13.10;64.70
69328;DHT22;56472;52.114;5.492;2023-03-04T13:10:07;13.40;62.00
69328;DHT22;56472;52.114;5.492;2023-03-04T13:12:47;13.20;62.10
69328;DHT22;56472;52.114;5.492;2023-03-04T13:15:27;13.10;62.60
69328;DHT22;56472;52.114;5.492;2023-03-04T13:17:57;13.00;63.00
69328;DHT22;56472;52.114;5.492;2023-03-04T13:20:34;12.90;63.20
69328;DHT22;56472;52.114;5.492;2023-03-04T13:43:49;11.40;66.30
69328;DHT22;56472;52.114;5.492;2023-03-04T13:51:34;11.20;67.20
69328;DHT22;56472;52.114;5.492;2023-03-04T14:01:48;11.30;67.00
69328;DHT22;56472;52.114;5.492;2023-03-04T14:06:51;11.40;66.10
69328;DHT22;56472;52.114;5.492;2023-03-04T14:09:30;11.40;65.80
69328;DHT22;56472;52.114;5.492;2023-03-04T14:12:00;11.40;64.10
69328;DHT22;56472;52.114;5.492;2023-03-04T14:14:39;11.30;63.60
69328;DHT22;56472;52.114;5.492;2023-03-04T14:17:16;11.30;62.70
69328;DHT22;56472;52.114;5.492;2023-03-04T14:19:45;11.20;62.50
69328;DHT22;56472;52.114;5.492;2023-03-04T14:22:29;11.10;62.30
69328;DHT22;56472;52.114;5.492;2023-03-04T14:25:20;11.10;62.40
69328;DHT22;56472;52.114;5.492;2023-03-04T14:27:47;11.10;62.80
69328;DHT22;56472;52.114;5.492;2023-03-04T14:30:25;11.10;63.00
69328;DHT22;56472;52.114;5.492;2023-03-04T14:33:14;11.10;62.20
69328;DHT22;56472;52.114;5.492;2023-03-04T14:35:47;11.10;62.10
69328;DHT22;56472;52.114;5.492;2023-03-04T14:38:27;11.10;61.80
69328;DHT22;56472;52.114;5.492;2023-03-04T14:41:46;11.00;61.70
69328;DHT22;56472;52.114;5.492;2023-03-04T14:44:13;10.90;61.90
69328;DHT22;56472;52.114;5.492;2023-03-04T14:46:49;10.90;61.90
69328;DHT22;56472;52.114;5.492;2023-03-04T14:49:34;10.90;62.40
69328;DHT22;56472;52.114;5.492;2023-03-04T14:52:02;10.90;62.40
69328;DHT22;56472;52.114;5.492;2023-03-04T14:54:35;10.90;62.60
69328;DHT22;56472;52.114;5.492;2023-03-04T14:57:19;10.90;62.50
69328;DHT22;56472;52.114;5.492;2023-03-04T14:59:47;11.00;63.00
69328;DHT22;56472;52.114;5.492;2023-03-04T15:02:22;11.10;63.00
69328;DHT22;56472;52.114;5.492;2023-03-04T15:04:50;11.10;62.50
69328;DHT22;56472;52.114;5.492;2023-03-04T15:07:22;11.10;62.10
69328;DHT22;56472;52.114;5.492;2023-03-04T15:09:53;11.10;62.00
69328;DHT22;56472;52.114;5.492;2023-03-04T15:12:27;11.10;62.50
69328;DHT22;56472;52.114;5.492;2023-03-04T15:15:00;11.00;63.10
69328;DHT22;56472;52.114;5.492;2023-03-04T15:17:39;11.00;64.60
69328;DHT22;56472;52.114;5.492;2023-03-04T15:25:14;10.90;65.00
69328;DHT22;56472;52.114;5.492;2023-03-04T15:27:43;10.90;65.20
69328;DHT22;56472;52.114;5.492;2023-03-04T15:30:17;10.80;65.30
69328;DHT22;56472;52.114;5.492;2023-03-04T15:32:44;10.80;65.40
69328;DHT22;56472;52.114;5.492;2023-03-04T15:35:13;10.80;65.40
69328;DHT22;56472;52.114;5.492;2023-03-04T15:37:41;10.80;65.70
69328;DHT22;56472;52.114;5.492;2023-03-04T15:40:28;10.80;65.90
69328;DHT22;56472;52.114;5.492;2023-03-04T15:42:57;10.90;65.40
69328;DHT22;56472;52.114;5.492;2023-03-04T15:45:33;10.90;65.10
69328;DHT22;56472;52.114;5.492;2023-03-04T15:48:12;10.90;65.00
69328;DHT22;56472;52.114;5.492;2023-03-04T15:56:04;10.90;64.80
69328;DHT22;56472;52.114;5.492;2023-03-04T15:58:34;10.90;64.80
69328;DHT22;56472;52.114;5.492;2023-03-04T16:01:01;10.80;64.70
69328;DHT22;56472;52.114;5.492;2023-03-04T16:03:28;10.80;64.40
69328;DHT22;56472;52.114;5.492;2023-03-04T16:05:56;10.80;64.50
69328;DHT22;56472;52.114;5.492;2023-03-04T16:08:24;10.70;64.40
69328;DHT22;56472;52.114;5.492;2023-03-04T16:10:51;10.70;64.20
69328;DHT22;56472;52.114;5.492;2023-03-04T16:13:22;10.70;64.40
69328;DHT22;56472;52.114;5.492;2023-03-04T16:15:50;10.70;64.20
69328;DHT22;56472;52.114;5.492;2023-03-04T16:18:17;10.60;64.00
69328;DHT22;56472;52.114;5.492;2023-03-04T16:20:46;10.60;63.50
69328;DHT22;56472;52.114;5.492;2023-03-04T16:23:20;10.50;63.10
69328;DHT22;56472;52.114;5.492;2023-03-04T16:25:50;10.50;62.90
69328;DHT22;56472;52.114;5.492;2023-03-04T16:28:17;10.50;63.10
69328;DHT22;56472;52.114;5.492;2023-03-04T16:30:44;10.40;63.10
69328;DHT22;56472;52.114;5.492;2023-03-04T16:33:11;10.40;63.30
69328;DHT22;56472;52.114;5.492;2023-03-04T16:35:41;10.40;63.60
69328;DHT22;56472;52.114;5.492;2023-03-04T16:38:21;10.40;63.60
69328;DHT22;56472;52.114;5.492;2023-03-04T16:40:48;10.30;63.50
69328;DHT22;56472;52.114;5.492;2023-03-04T16:43:15;10.30;63.50
69328;DHT22;56472;52.114;5.492;2023-03-04T16:45:42;10.30;63.30
69328;DHT22;56472;52.114;5.492;2023-03-04T16:48:09;10.30;63.30
69328;DHT22;56472;52.114;5.492;2023-03-04T16:50:37;10.20;63.40
69328;DHT22;56472;52.114;5.492;2023-03-04T16:53:04;10.20;63.70
69328;DHT22;56472;52.114;5.492;2023-03-04T16:55:41;10.20;63.90
69328;DHT22;56472;52.114;5.492;2023-03-04T16:58:08;10.20;63.90
69328;DHT22;56472;52.114;5.492;2023-03-04T17:00:35;10.20;63.80
69328;DHT22;56472;52.114;5.492;2023-03-04T17:03:02;10.20;63.80
69328;DHT22;56472;52.114;5.492;2023-03-04T17:05:31;10.10;63.60
69328;DHT22;56472;52.114;5.492;2023-03-04T17:07:59;10.10;63.60
69328;DHT22;56472;52.114;5.492;2023-03-04T17:10:26;10.10;63.60
69328;DHT22;56472;52.114;5.492;2023-03-04T17:12:53;10.00;63.80
69328;DHT22;56472;52.114;5.492;2023-03-04T17:15:20;10.00;63.90
69328;DHT22;56472;52.114;5.492;2023-03-04T17:17:47;10.00;64.10
69328;DHT22;56472;52.114;5.492;2023-03-04T17:20:16;10.00;64.10
69328;DHT22;56472;52.114;5.492;2023-03-04T17:22:43;10.00;64.30
69328;DHT22;56472;52.114;5.492;2023-03-04T17:25:12;9.90;64.30
69328;DHT22;56472;52.114;5.492;2023-03-04T17:27:39;9.90;64.50
69328;DHT22;56472;52.114;5.492;2023-03-04T17:30:08;9.90;64.60
69328;DHT22;56472;52.114;5.492;2023-03-04T17:32:38;9.90;64.60
69328;DHT22;56472;52.114;5.492;2023-03-04T17:35:06;9.90;64.70
69328;DHT22;56472;52.114;5.492;2023-03-04T17:37:34;9.80;64.50
69328;DHT22;56472;52.114;5.492;2023-03-04T17:40:04;9.80;64.50
69328;DHT22;56472;52.114;5.492;2023-03-04T17:42:31;9.80;64.50
69328;DHT22;56472;52.114;5.492;2023-03-04T17:44:58;9.70;64.70
69328;DHT22;56472;52.114;5.492;2023-03-04T17:47:25;9.70;64.90
69328;DHT22;56472;52.114;5.492;2023-03-04T17:49:52;9.70;65.00
69328;DHT22;56472;52.114;5.492;2023-03-04T17:52:19;9.70;65.20
69328;DHT22;56472;52.114;5.492;2023-03-04T17:54:47;9.60;65.40
69328;DHT22;56472;52.114;5.492;2023-03-04T17:57:14;9.70;65.70
69328;DHT22;56472;52.114;5.492;2023-03-04T17:59:41;9.60;65.90
69328;DHT22;56472;52.114;5.492;2023-03-04T18:02:12;9.60;66.00
69328;DHT22;56472;52.114;5.492;2023-03-04T18:04:40;9.60;66.10
69328;DHT22;56472;52.114;5.492;2023-03-04T18:07:08;9.70;66.10
69328;DHT22;56472;52.114;5.492;2023-03-04T18:09:35;9.60;66.10
69328;DHT22;56472;52.114;5.492;2023-03-04T18:12:02;9.50;66.00
69328;DHT22;56472;52.114;5.492;2023-03-04T18:14:28;9.50;66.20
69328;DHT22;56472;52.114;5.492;2023-03-04T18:16:55;9.50;66.40
69328;DHT22;56472;52.114;5.492;2023-03-04T18:19:22;9.50;66.70
69328;DHT22;56472;52.114;5.492;2023-03-04T18:21:49;9.50;66.70
69328;DHT22;56472;52.114;5.492;2023-03-04T18:24:16;9.50;66.80
69328;DHT22;56472;52.114;5.492;2023-03-04T18:26:43;9.50;66.90
69328;DHT22;56472;52.114;5.492;2023-03-04T18:29:10;9.40;67.00
69328;DHT22;56472;52.114;5.492;2023-03-04T18:31:37;9.40;67.10
69328;DHT22;56472;52.114;5.492;2023-03-04T18:34:04;9.40;67.20
69328;DHT22;56472;52.114;5.492;2023-03-04T18:36:32;9.40;67.20
69328;DHT22;56472;52.114;5.492;2023-03-04T18:38:59;9.40;67.40